sensor_id;sensor_type;location;lat;lon;timestamp;P1;durP1;ratioP1;P2;durP2;ratioP2
5349;SDS011;2697;42.144;24.794;2022-12-07T00:01:04;89.70;;;31.90;;
5349;SDS011;2697;42.144;24.794;2022-12-07T00:03:35;86.03;;;30.60;;
5349;SDS011;2697;42.144;24.794;2022-12-07T00:06:01;74.57;;;30.37;;
5349;SDS011;2697;42.144;24.794;2022-12-07T00:08:29;87.37;;;31.63;;
5349;SDS011;2697;42.144;24.794;2022-12-07T00:10:58;94.73;;;31.17;;
5349;SDS011;2697;42.144;24.794;2022-12-07T00:13:27;78.13;;;32.57;;
5349;SDS011;2697;42.144;24.794;2022-12-07T00:15:52;86.87;;;30.70;;
5349;SDS011;2697;42.144;24.794;2022-12-07T00:18:17;92.77;;;32.33;;
5349;SDS011;2697;42.144;24.794;2022-12-07T00:20:43;76.93;;;29.80;;
5349;SDS011;2697;42.144;24.794;2022-12-07T00:23:08;76.77;;;27.60;;
5349;SDS011;2697;42.144;24.794;2022-12-07T00:25:33;80.07;;;31.53;;
5349;SDS011;2697;42.144;24.794;2022-12-07T00:27:59;88.43;;;30.43;;
5349;SDS011;2697;42.144;24.794;2022-12-07T00:30:24;92.87;;;32.80;;
5349;SDS011;2697;42.144;24.794;2022-12-07T00:32:50;104.77;;;32.93;;
5349;SDS011;2697;42.144;24.794;2022-12-07T00:35:15;93.43;;;29.30;;
5349;SDS011;2697;42.144;24.794;2022-12-07T00:37:41;73.47;;;29.17;;
5349;SDS011;2697;42.144;24.794;2022-12-07T00:40:06;78.07;;;29.13;;
5349;SDS011;2697;42.144;24.794;2022-12-07T00:42:32;76.30;;;28.97;;
5349;SDS011;2697;42.144;24.794;2022-12-07T00:44:57;84.73;;;30.27;;
5349;SDS011;2697;42.144;24.794;2022-12-07T00:47:23;80.63;;;27.07;;
5349;SDS011;2697;42.144;24.794;2022-12-07T00:49:48;79.53;;;28.03;;
5349;SDS011;2697;42.144;24.794;2022-12-07T00:52:14;73.40;;;29.03;;
5349;SDS011;2697;42.144;24.794;2022-12-07T00:54:39;66.93;;;26.90;;
5349;SDS011;2697;42.144;24.794;2022-12-07T00:57:05;86.23;;;30.27;;
5349;SDS011;2697;42.144;24.794;2022-12-07T00:59:30;78.63;;;30.00;;
5349;SDS011;2697;42.144;24.794;2022-12-07T01:01:55;83.00;;;26.60;;
5349;SDS011;2697;42.144;24.794;2022-12-07T01:04:21;61.57;;;25.97;;
5349;SDS011;2697;42.144;24.794;2022-12-07T01:06:46;61.83;;;24.63;;
5349;SDS011;2697;42.144;24.794;2022-12-07T01:09:11;73.17;;;27.20;;
5349;SDS011;2697;42.144;24.794;2022-12-07T01:11:37;75.63;;;24.57;;
5349;SDS011;2697;42.144;24.794;2022-12-07T01:14:02;62.77;;;23.97;;
5349;SDS011;2697;42.144;24.794;2022-12-07T01:16:29;68.93;;;23.47;;
5349;SDS011;2697;42.144;24.794;2022-12-07T01:18:55;51.83;;;21.00;;
5349;SDS011;2697;42.144;24.794;2022-12-07T01:21:23;71.40;;;23.90;;
5349;SDS011;2697;42.144;24.794;2022-12-07T01:23:51;75.80;;;26.70;;
5349;SDS011;2697;42.144;24.794;2022-12-07T01:26:18;52.33;;;20.13;;
5349;SDS011;2697;42.144;24.794;2022-12-07T01:28:45;53.40;;;21.57;;
5349;SDS011;2697;42.144;24.794;2022-12-07T01:31:12;61.07;;;22.37;;
5349;SDS011;2697;42.144;24.794;2022-12-07T01:33:40;56.83;;;20.00;;
5349;SDS011;2697;42.144;24.794;2022-12-07T01:36:17;61.93;;;21.17;;
5349;SDS011;2697;42.144;24.794;2022-12-07T01:38:45;51.17;;;18.33;;
5349;SDS011;2697;42.144;24.794;2022-12-07T01:41:11;50.23;;;18.50;;
5349;SDS011;2697;42.144;24.794;2022-12-07T01:44:06;62.77;;;18.03;;
5349;SDS011;2697;42.144;24.794;2022-12-07T01:46:46;53.90;;;21.90;;
5349;SDS011;2697;42.144;24.794;2022-12-07T01:49:16;54.03;;;19.07;;
5349;SDS011;2697;42.144;24.794;2022-12-07T01:51:46;44.00;;;17.37;;
5349;SDS011;2697;42.144;24.794;2022-12-07T01:54:14;44.87;;;15.87;;
5349;SDS011;2697;42.144;24.794;2022-12-07T01:56:42;48.17;;;17.47;;
5349;SDS011;2697;42.144;24.794;2022-12-07T01:59:14;46.10;;;16.90;;
5349;SDS011;2697;42.144;24.794;2022-12-07T02:01:40;49.83;;;18.30;;
5349;SDS011;2697;42.144;24.794;2022-12-07T02:04:05;56.80;;;19.50;;
5349;SDS011;2697;42.144;24.794;2022-12-07T02:06:31;54.87;;;18.13;;
5349;SDS011;2697;42.144;24.794;2022-12-07T02:08:56;63.13;;;18.43;;
5349;SDS011;2697;42.144;24.794;2022-12-07T02:11:22;46.87;;;18.10;;
5349;SDS011;2697;42.144;24.794;2022-12-07T02:13:47;43.20;;;17.30;;
5349;SDS011;2697;42.144;24.794;2022-12-07T02:30:31;61.67;;;18.40;;
5349;SDS011;2697;42.144;24.794;2022-12-07T02:33:05;47.10;;;17.67;;
5349;SDS011;2697;42.144;24.794;2022-12-07T02:35:47;51.77;;;18.73;;
5349;SDS011;2697;42.144;24.794;2022-12-07T02:38:45;41.93;;;17.50;;
5349;SDS011;2697;42.144;24.794;2022-12-07T02:41:33;57.13;;;18.50;;
5349;SDS011;2697;42.144;24.794;2022-12-07T02:44:06;48.80;;;19.57;;
5349;SDS011;2697;42.144;24.794;2022-12-07T02:46:54;47.73;;;17.10;;
5349;SDS011;2697;42.144;24.794;2022-12-07T02:49:24;59.40;;;18.30;;
5349;SDS011;2697;42.144;24.794;2022-12-07T02:51:52;53.20;;;20.00;;
5349;SDS011;2697;42.144;24.794;2022-12-07T02:54:18;51.50;;;16.70;;
5349;SDS011;2697;42.144;24.794;2022-12-07T02:56:48;43.13;;;16.17;;
5349;SDS011;2697;42.144;24.794;2022-12-07T02:59:36;40.90;;;16.67;;
5349;SDS011;2697;42.144;24.794;2022-12-07T03:15:23;47.40;;;15.20;;
5349;SDS011;2697;42.144;24.794;2022-12-07T03:17:53;42.97;;;14.53;;
5349;SDS011;2697;42.144;24.794;2022-12-07T03:20:22;43.37;;;13.63;;
5349;SDS011;2697;42.144;24.794;2022-12-07T03:22:50;31.87;;;13.07;;
5349;SDS011;2697;42.144;24.794;2022-12-07T03:25:17;33.97;;;15.00;;
5349;SDS011;2697;42.144;24.794;2022-12-07T03:27:52;39.20;;;14.50;;
5349;SDS011;2697;42.144;24.794;2022-12-07T03:30:23;41.67;;;13.93;;
5349;SDS011;2697;42.144;24.794;2022-12-07T03:32:58;26.77;;;12.47;;
5349;SDS011;2697;42.144;24.794;2022-12-07T03:35:35;30.87;;;13.43;;
5349;SDS011;2697;42.144;24.794;2022-12-07T03:38:18;45.90;;;15.17;;
5349;SDS011;2697;42.144;24.794;2022-12-07T03:43:25;30.30;;;12.63;;
5349;SDS011;2697;42.144;24.794;2022-12-07T03:48:40;42.07;;;13.17;;
5349;SDS011;2697;42.144;24.794;2022-12-07T03:51:18;36.30;;;14.03;;
5349;SDS011;2697;42.144;24.794;2022-12-07T03:53:46;43.33;;;13.47;;
5349;SDS011;2697;42.144;24.794;2022-12-07T03:56:16;36.63;;;12.87;;
5349;SDS011;2697;42.144;24.794;2022-12-07T03:58:43;51.53;;;15.33;;
5349;SDS011;2697;42.144;24.794;2022-12-07T04:01:09;38.20;;;14.10;;
5349;SDS011;2697;42.144;24.794;2022-12-07T04:03:35;39.40;;;14.00;;
5349;SDS011;2697;42.144;24.794;2022-12-07T04:06:00;38.30;;;14.17;;
5349;SDS011;2697;42.144;24.794;2022-12-07T04:08:26;35.30;;;14.50;;
5349;SDS011;2697;42.144;24.794;2022-12-07T04:10:51;35.33;;;14.30;;
5349;SDS011;2697;42.144;24.794;2022-12-07T04:13:17;32.27;;;12.87;;
5349;SDS011;2697;42.144;24.794;2022-12-07T04:15:42;38.87;;;14.47;;
5349;SDS011;2697;42.144;24.794;2022-12-07T04:18:08;56.23;;;14.27;;
5349;SDS011;2697;42.144;24.794;2022-12-07T04:20:33;43.57;;;13.93;;
5349;SDS011;2697;42.144;24.794;2022-12-07T04:22:58;45.30;;;14.30;;
5349;SDS011;2697;42.144;24.794;2022-12-07T04:25:24;43.40;;;14.43;;
5349;SDS011;2697;42.144;24.794;2022-12-07T04:27:49;45.27;;;14.97;;
5349;SDS011;2697;42.144;24.794;2022-12-07T04:30:15;30.70;;;12.83;;
5349;SDS011;2697;42.144;24.794;2022-12-07T04:32:40;34.10;;;11.53;;
5349;SDS011;2697;42.144;24.794;2022-12-07T04:35:06;30.43;;;11.90;;
5349;SDS011;2697;42.144;24.794;2022-12-07T04:37:31;45.27;;;13.63;;
5349;SDS011;2697;42.144;24.794;2022-12-07T04:39:57;46.03;;;12.83;;
5349;SDS011;2697;42.144;24.794;2022-12-07T04:42:22;33.13;;;13.83;;
5349;SDS011;2697;42.144;24.794;2022-12-07T04:44:48;42.00;;;15.07;;
5349;SDS011;2697;42.144;24.794;2022-12-07T04:47:13;41.07;;;12.57;;
5349;SDS011;2697;42.144;24.794;2022-12-07T04:49:38;38.60;;;15.37;;
5349;SDS011;2697;42.144;24.794;2022-12-07T04:52:04;50.43;;;13.93;;
5349;SDS011;2697;42.144;24.794;2022-12-07T04:54:29;49.57;;;14.57;;
5349;SDS011;2697;42.144;24.794;2022-12-07T04:56:55;64.37;;;15.20;;
5349;SDS011;2697;42.144;24.794;2022-12-07T04:59:20;68.90;;;15.97;;
5349;SDS011;2697;42.144;24.794;2022-12-07T05:01:45;43.07;;;12.30;;
5349;SDS011;2697;42.144;24.794;2022-12-07T05:04:11;37.10;;;14.07;;
5349;SDS011;2697;42.144;24.794;2022-12-07T05:06:36;40.73;;;12.10;;
5349;SDS011;2697;42.144;24.794;2022-12-07T05:09:02;35.70;;;12.53;;
5349;SDS011;2697;42.144;24.794;2022-12-07T05:11:28;47.17;;;13.40;;
5349;SDS011;2697;42.144;24.794;2022-12-07T05:14:04;62.83;;;16.33;;
5349;SDS011;2697;42.144;24.794;2022-12-07T05:16:34;53.23;;;13.67;;
5349;SDS011;2697;42.144;24.794;2022-12-07T05:19:00;52.40;;;13.53;;
5349;SDS011;2697;42.144;24.794;2022-12-07T05:21:25;36.63;;;13.73;;
5349;SDS011;2697;42.144;24.794;2022-12-07T05:23:51;39.53;;;16.90;;
5349;SDS011;2697;42.144;24.794;2022-12-07T05:26:16;53.27;;;15.37;;
5349;SDS011;2697;42.144;24.794;2022-12-07T05:28:42;69.33;;;17.53;;
5349;SDS011;2697;42.144;24.794;2022-12-07T05:31:07;52.13;;;18.67;;
5349;SDS011;2697;42.144;24.794;2022-12-07T05:33:33;54.83;;;21.57;;
5349;SDS011;2697;42.144;24.794;2022-12-07T05:35:58;44.87;;;19.30;;
5349;SDS011;2697;42.144;24.794;2022-12-07T05:38:23;61.57;;;18.33;;
5349;SDS011;2697;42.144;24.794;2022-12-07T05:40:50;67.43;;;19.90;;
5349;SDS011;2697;42.144;24.794;2022-12-07T05:43:15;60.83;;;19.30;;
5349;SDS011;2697;42.144;24.794;2022-12-07T05:45:41;53.53;;;19.30;;
5349;SDS011;2697;42.144;24.794;2022-12-07T05:48:06;65.53;;;19.13;;
5349;SDS011;2697;42.144;24.794;2022-12-07T05:50:31;42.33;;;18.53;;
5349;SDS011;2697;42.144;24.794;2022-12-07T05:52:57;45.00;;;20.00;;
5349;SDS011;2697;42.144;24.794;2022-12-07T05:55:22;69.20;;;20.73;;
5349;SDS011;2697;42.144;24.794;2022-12-07T05:57:47;64.87;;;19.40;;
5349;SDS011;2697;42.144;24.794;2022-12-07T06:00:31;49.83;;;20.00;;
5349;SDS011;2697;42.144;24.794;2022-12-07T06:02:57;67.93;;;20.47;;
5349;SDS011;2697;42.144;24.794;2022-12-07T06:05:22;80.93;;;21.07;;
5349;SDS011;2697;42.144;24.794;2022-12-07T06:07:48;67.90;;;21.83;;
5349;SDS011;2697;42.144;24.794;2022-12-07T06:10:13;76.20;;;22.70;;
5349;SDS011;2697;42.144;24.794;2022-12-07T06:12:38;60.87;;;21.50;;
5349;SDS011;2697;42.144;24.794;2022-12-07T06:15:07;82.37;;;21.73;;
5349;SDS011;2697;42.144;24.794;2022-12-07T06:17:33;99.13;;;25.47;;
5349;SDS011;2697;42.144;24.794;2022-12-07T06:19:58;69.40;;;25.43;;
5349;SDS011;2697;42.144;24.794;2022-12-07T06:22:23;69.93;;;24.67;;
5349;SDS011;2697;42.144;24.794;2022-12-07T06:24:49;89.70;;;25.13;;
5349;SDS011;2697;42.144;24.794;2022-12-07T06:27:14;94.97;;;25.77;;
5349;SDS011;2697;42.144;24.794;2022-12-07T06:29:40;86.30;;;27.17;;
5349;SDS011;2697;42.144;24.794;2022-12-07T06:32:05;90.17;;;28.23;;
5349;SDS011;2697;42.144;24.794;2022-12-07T06:34:30;91.40;;;26.23;;
5349;SDS011;2697;42.144;24.794;2022-12-07T06:36:56;87.30;;;27.50;;
5349;SDS011;2697;42.144;24.794;2022-12-07T06:39:22;88.20;;;25.10;;
5349;SDS011;2697;42.144;24.794;2022-12-07T06:41:50;101.83;;;29.53;;
5349;SDS011;2697;42.144;24.794;2022-12-07T06:44:19;79.50;;;24.77;;
5349;SDS011;2697;42.144;24.794;2022-12-07T06:46:45;74.93;;;27.07;;
5349;SDS011;2697;42.144;24.794;2022-12-07T06:49:11;84.43;;;29.23;;
5349;SDS011;2697;42.144;24.794;2022-12-07T06:51:36;89.27;;;26.17;;
5349;SDS011;2697;42.144;24.794;2022-12-07T06:54:05;75.03;;;26.40;;
5349;SDS011;2697;42.144;24.794;2022-12-07T06:56:32;91.77;;;28.80;;
5349;SDS011;2697;42.144;24.794;2022-12-07T06:58:57;83.90;;;27.93;;
5349;SDS011;2697;42.144;24.794;2022-12-07T07:01:22;87.57;;;26.37;;
5349;SDS011;2697;42.144;24.794;2022-12-07T07:03:48;78.13;;;26.50;;
5349;SDS011;2697;42.144;24.794;2022-12-07T07:06:13;67.37;;;23.90;;
5349;SDS011;2697;42.144;24.794;2022-12-07T07:08:40;100.63;;;22.47;;
5349;SDS011;2697;42.144;24.794;2022-12-07T07:11:05;66.13;;;23.87;;
5349;SDS011;2697;42.144;24.794;2022-12-07T07:13:32;72.27;;;22.57;;
5349;SDS011;2697;42.144;24.794;2022-12-07T07:15:58;61.07;;;21.87;;
5349;SDS011;2697;42.144;24.794;2022-12-07T07:18:23;51.77;;;21.60;;
5349;SDS011;2697;42.144;24.794;2022-12-07T07:20:50;65.87;;;19.33;;
5349;SDS011;2697;42.144;24.794;2022-12-07T07:23:16;52.97;;;19.27;;
5349;SDS011;2697;42.144;24.794;2022-12-07T07:25:42;49.57;;;19.50;;
5349;SDS011;2697;42.144;24.794;2022-12-07T07:28:07;48.07;;;20.87;;
5349;SDS011;2697;42.144;24.794;2022-12-07T07:30:33;63.70;;;20.20;;
5349;SDS011;2697;42.144;24.794;2022-12-07T07:32:59;49.20;;;19.83;;
5349;SDS011;2697;42.144;24.794;2022-12-07T07:35:25;55.73;;;18.43;;
5349;SDS011;2697;42.144;24.794;2022-12-07T07:37:53;53.73;;;18.30;;
5349;SDS011;2697;42.144;24.794;2022-12-07T07:40:18;58.30;;;18.07;;
5349;SDS011;2697;42.144;24.794;2022-12-07T07:42:46;45.07;;;18.40;;
5349;SDS011;2697;42.144;24.794;2022-12-07T07:45:13;46.70;;;17.33;;
5349;SDS011;2697;42.144;24.794;2022-12-07T07:47:38;48.90;;;17.00;;
5349;SDS011;2697;42.144;24.794;2022-12-07T07:50:03;54.47;;;17.07;;
5349;SDS011;2697;42.144;24.794;2022-12-07T07:52:30;57.67;;;18.10;;
5349;SDS011;2697;42.144;24.794;2022-12-07T07:54:56;45.90;;;17.83;;
5349;SDS011;2697;42.144;24.794;2022-12-07T07:57:21;51.17;;;17.60;;
5349;SDS011;2697;42.144;24.794;2022-12-07T07:59:46;48.60;;;16.30;;
5349;SDS011;2697;42.144;24.794;2022-12-07T08:02:13;59.63;;;18.43;;
5349;SDS011;2697;42.144;24.794;2022-12-07T08:04:40;63.77;;;17.77;;
5349;SDS011;2697;42.144;24.794;2022-12-07T08:07:05;46.87;;;18.40;;
5349;SDS011;2697;42.144;24.794;2022-12-07T08:09:31;61.57;;;19.13;;
5349;SDS011;2697;42.144;24.794;2022-12-07T08:11:57;48.87;;;18.83;;
5349;SDS011;2697;42.144;24.794;2022-12-07T08:14:22;57.27;;;20.40;;
5349;SDS011;2697;42.144;24.794;2022-12-07T08:16:48;51.73;;;18.00;;
5349;SDS011;2697;42.144;24.794;2022-12-07T08:19:13;45.53;;;18.00;;
5349;SDS011;2697;42.144;24.794;2022-12-07T08:21:38;60.17;;;20.30;;
5349;SDS011;2697;42.144;24.794;2022-12-07T08:24:04;75.57;;;20.10;;
5349;SDS011;2697;42.144;24.794;2022-12-07T08:26:29;66.30;;;20.10;;
5349;SDS011;2697;42.144;24.794;2022-12-07T08:28:55;75.37;;;19.77;;
5349;SDS011;2697;42.144;24.794;2022-12-07T08:31:20;46.10;;;20.80;;
5349;SDS011;2697;42.144;24.794;2022-12-07T08:33:46;74.73;;;23.87;;
5349;SDS011;2697;42.144;24.794;2022-12-07T08:36:12;77.30;;;23.37;;
5349;SDS011;2697;42.144;24.794;2022-12-07T08:38:39;69.53;;;25.00;;
5349;SDS011;2697;42.144;24.794;2022-12-07T08:41:06;62.00;;;22.50;;
5349;SDS011;2697;42.144;24.794;2022-12-07T08:43:32;73.80;;;28.77;;
5349;SDS011;2697;42.144;24.794;2022-12-07T08:46:13;82.50;;;30.40;;
5349;SDS011;2697;42.144;24.794;2022-12-07T08:48:43;67.23;;;27.47;;
5349;SDS011;2697;42.144;24.794;2022-12-07T08:51:13;76.77;;;28.40;;
5349;SDS011;2697;42.144;24.794;2022-12-07T08:53:38;77.90;;;30.70;;
5349;SDS011;2697;42.144;24.794;2022-12-07T08:56:05;68.40;;;30.27;;
5349;SDS011;2697;42.144;24.794;2022-12-07T08:58:32;65.23;;;27.80;;
5349;SDS011;2697;42.144;24.794;2022-12-07T09:00:58;74.30;;;29.00;;
5349;SDS011;2697;42.144;24.794;2022-12-07T09:03:24;79.50;;;31.43;;
5349;SDS011;2697;42.144;24.794;2022-12-07T09:05:49;70.60;;;29.83;;
5349;SDS011;2697;42.144;24.794;2022-12-07T09:08:15;84.27;;;31.03;;
5349;SDS011;2697;42.144;24.794;2022-12-07T09:10:41;70.13;;;30.83;;
5349;SDS011;2697;42.144;24.794;2022-12-07T09:13:06;98.50;;;33.30;;
5349;SDS011;2697;42.144;24.794;2022-12-07T09:15:32;87.27;;;32.03;;
5349;SDS011;2697;42.144;24.794;2022-12-07T09:17:58;92.80;;;32.40;;
5349;SDS011;2697;42.144;24.794;2022-12-07T09:20:23;91.60;;;33.70;;
5349;SDS011;2697;42.144;24.794;2022-12-07T09:22:49;75.23;;;28.50;;
5349;SDS011;2697;42.144;24.794;2022-12-07T09:25:14;71.80;;;29.80;;
5349;SDS011;2697;42.144;24.794;2022-12-07T09:27:39;83.87;;;30.43;;
5349;SDS011;2697;42.144;24.794;2022-12-07T09:30:06;77.07;;;27.30;;
5349;SDS011;2697;42.144;24.794;2022-12-07T09:32:32;75.90;;;29.50;;
5349;SDS011;2697;42.144;24.794;2022-12-07T09:34:57;62.33;;;26.37;;
5349;SDS011;2697;42.144;24.794;2022-12-07T09:37:23;71.57;;;24.83;;
5349;SDS011;2697;42.144;24.794;2022-12-07T09:39:48;59.80;;;24.00;;
5349;SDS011;2697;42.144;24.794;2022-12-07T09:42:32;52.77;;;19.87;;
5349;SDS011;2697;42.144;24.794;2022-12-07T09:45:00;58.50;;;21.13;;
5349;SDS011;2697;42.144;24.794;2022-12-07T09:47:27;87.43;;;24.57;;
5349;SDS011;2697;42.144;24.794;2022-12-07T09:49:55;55.80;;;20.80;;
5349;SDS011;2697;42.144;24.794;2022-12-07T09:52:28;42.80;;;18.70;;
5349;SDS011;2697;42.144;24.794;2022-12-07T09:54:54;55.93;;;21.20;;
5349;SDS011;2697;42.144;24.794;2022-12-07T09:57:21;58.43;;;20.80;;
5349;SDS011;2697;42.144;24.794;2022-12-07T09:59:54;43.47;;;19.87;;
5349;SDS011;2697;42.144;24.794;2022-12-07T10:02:28;51.13;;;18.00;;
5349;SDS011;2697;42.144;24.794;2022-12-07T10:05:07;54.73;;;20.30;;
5349;SDS011;2697;42.144;24.794;2022-12-07T10:07:38;49.03;;;17.97;;
5349;SDS011;2697;42.144;24.794;2022-12-07T10:10:04;43.80;;;18.47;;
5349;SDS011;2697;42.144;24.794;2022-12-07T10:12:57;54.93;;;18.47;;
5349;SDS011;2697;42.144;24.794;2022-12-07T10:20:59;40.37;;;16.70;;
5349;SDS011;2697;42.144;24.794;2022-12-07T10:23:32;54.20;;;16.07;;
5349;SDS011;2697;42.144;24.794;2022-12-07T10:25:59;42.53;;;15.60;;
5349;SDS011;2697;42.144;24.794;2022-12-07T10:28:27;49.50;;;17.47;;
5349;SDS011;2697;42.144;24.794;2022-12-07T10:31:01;39.53;;;15.70;;
5349;SDS011;2697;42.144;24.794;2022-12-07T10:33:50;43.77;;;16.70;;
5349;SDS011;2697;42.144;24.794;2022-12-07T10:36:30;41.37;;;15.20;;
5349;SDS011;2697;42.144;24.794;2022-12-07T10:39:19;34.93;;;14.80;;
5349;SDS011;2697;42.144;24.794;2022-12-07T10:41:56;39.77;;;17.13;;
5349;SDS011;2697;42.144;24.794;2022-12-07T10:44:27;38.53;;;14.83;;
5349;SDS011;2697;42.144;24.794;2022-12-07T10:52:45;35.80;;;16.10;;
5349;SDS011;2697;42.144;24.794;2022-12-07T11:00:39;49.23;;;15.83;;
5349;SDS011;2697;42.144;24.794;2022-12-07T11:06:31;37.87;;;14.70;;
5349;SDS011;2697;42.144;24.794;2022-12-07T11:09:26;44.70;;;14.07;;
5349;SDS011;2697;42.144;24.794;2022-12-07T11:12:28;38.80;;;14.07;;
5349;SDS011;2697;42.144;24.794;2022-12-07T11:15:26;33.33;;;13.27;;
5349;SDS011;2697;42.144;24.794;2022-12-07T11:18:06;31.40;;;14.20;;
5349;SDS011;2697;42.144;24.794;2022-12-07T11:26:13;41.57;;;16.57;;
5349;SDS011;2697;42.144;24.794;2022-12-07T11:31:26;52.83;;;17.73;;
5349;SDS011;2697;42.144;24.794;2022-12-07T11:34:04;43.33;;;15.80;;
5349;SDS011;2697;42.144;24.794;2022-12-07T11:36:43;62.03;;;18.27;;
5349;SDS011;2697;42.144;24.794;2022-12-07T11:41:39;37.27;;;17.63;;
5349;SDS011;2697;42.144;24.794;2022-12-07T11:44:08;47.10;;;16.30;;
5349;SDS011;2697;42.144;24.794;2022-12-07T11:52:10;44.00;;;15.53;;
5349;SDS011;2697;42.144;24.794;2022-12-07T11:54:44;50.50;;;16.70;;
5349;SDS011;2697;42.144;24.794;2022-12-07T11:57:16;59.63;;;16.37;;
5349;SDS011;2697;42.144;24.794;2022-12-07T11:59:52;33.50;;;14.43;;
5349;SDS011;2697;42.144;24.794;2022-12-07T12:02:26;34.63;;;12.53;;
5349;SDS011;2697;42.144;24.794;2022-12-07T12:05:05;25.67;;;11.57;;
5349;SDS011;2697;42.144;24.794;2022-12-07T12:07:32;27.93;;;12.97;;
5349;SDS011;2697;42.144;24.794;2022-12-07T12:10:04;43.63;;;15.13;;
5349;SDS011;2697;42.144;24.794;2022-12-07T12:23:22;32.13;;;13.53;;
5349;SDS011;2697;42.144;24.794;2022-12-07T12:25:59;33.83;;;14.70;;
5349;SDS011;2697;42.144;24.794;2022-12-07T12:33:46;50.50;;;15.20;;
5349;SDS011;2697;42.144;24.794;2022-12-07T12:46:52;35.10;;;13.50;;
5349;SDS011;2697;42.144;24.794;2022-12-07T12:54:33;34.03;;;14.10;;
5349;SDS011;2697;42.144;24.794;2022-12-07T12:59:36;37.53;;;13.93;;
5349;SDS011;2697;42.144;24.794;2022-12-07T13:17:59;28.00;;;12.73;;
5349;SDS011;2697;42.144;24.794;2022-12-07T13:20:43;41.83;;;13.90;;
5349;SDS011;2697;42.144;24.794;2022-12-07T13:23:14;39.17;;;13.47;;
5349;SDS011;2697;42.144;24.794;2022-12-07T13:28:40;29.17;;;13.00;;
5349;SDS011;2697;42.144;24.794;2022-12-07T13:31:30;33.40;;;13.23;;
5349;SDS011;2697;42.144;24.794;2022-12-07T13:33:59;29.10;;;12.90;;
5349;SDS011;2697;42.144;24.794;2022-12-07T13:36:26;36.03;;;12.53;;
5349;SDS011;2697;42.144;24.794;2022-12-07T13:38:55;30.37;;;12.53;;
5349;SDS011;2697;42.144;24.794;2022-12-07T13:41:23;43.50;;;13.10;;
5349;SDS011;2697;42.144;24.794;2022-12-07T13:43:59;34.30;;;14.23;;
5349;SDS011;2697;42.144;24.794;2022-12-07T13:46:30;28.70;;;13.33;;
5349;SDS011;2697;42.144;24.794;2022-12-07T13:49:15;40.87;;;17.40;;
5349;SDS011;2697;42.144;24.794;2022-12-07T13:51:42;29.37;;;14.00;;
5349;SDS011;2697;42.144;24.794;2022-12-07T13:54:11;40.80;;;14.90;;
5349;SDS011;2697;42.144;24.794;2022-12-07T13:56:38;29.40;;;13.73;;
5349;SDS011;2697;42.144;24.794;2022-12-07T13:59:17;46.73;;;14.73;;
5349;SDS011;2697;42.144;24.794;2022-12-07T14:01:45;37.43;;;13.90;;
5349;SDS011;2697;42.144;24.794;2022-12-07T14:04:32;34.10;;;15.50;;
5349;SDS011;2697;42.144;24.794;2022-12-07T14:07:00;34.00;;;14.90;;
5349;SDS011;2697;42.144;24.794;2022-12-07T14:09:27;51.20;;;15.03;;
5349;SDS011;2697;42.144;24.794;2022-12-07T14:11:54;33.53;;;13.70;;
5349;SDS011;2697;42.144;24.794;2022-12-07T14:14:22;37.30;;;13.90;;
5349;SDS011;2697;42.144;24.794;2022-12-07T14:16:58;54.27;;;16.90;;
5349;SDS011;2697;42.144;24.794;2022-12-07T14:19:41;35.67;;;14.90;;
5349;SDS011;2697;42.144;24.794;2022-12-07T14:22:23;34.47;;;14.70;;
5349;SDS011;2697;42.144;24.794;2022-12-07T14:24:48;38.50;;;15.17;;
5349;SDS011;2697;42.144;24.794;2022-12-07T14:27:22;45.47;;;18.90;;
5349;SDS011;2697;42.144;24.794;2022-12-07T14:29:50;56.27;;;18.80;;
5349;SDS011;2697;42.144;24.794;2022-12-07T14:32:24;50.20;;;17.23;;
5349;SDS011;2697;42.144;24.794;2022-12-07T14:35:10;40.83;;;15.27;;
5349;SDS011;2697;42.144;24.794;2022-12-07T14:37:38;54.53;;;17.60;;
5349;SDS011;2697;42.144;24.794;2022-12-07T14:40:05;42.50;;;16.83;;
5349;SDS011;2697;42.144;24.794;2022-12-07T14:42:31;36.70;;;15.73;;
5349;SDS011;2697;42.144;24.794;2022-12-07T14:44:59;45.57;;;15.60;;
5349;SDS011;2697;42.144;24.794;2022-12-07T14:47:25;41.77;;;16.27;;
5349;SDS011;2697;42.144;24.794;2022-12-07T14:49:51;50.57;;;14.53;;
5349;SDS011;2697;42.144;24.794;2022-12-07T14:52:18;37.80;;;16.90;;
5349;SDS011;2697;42.144;24.794;2022-12-07T14:54:46;50.47;;;18.17;;
5349;SDS011;2697;42.144;24.794;2022-12-07T14:57:11;41.00;;;15.80;;
5349;SDS011;2697;42.144;24.794;2022-12-07T14:59:37;58.83;;;16.20;;
5349;SDS011;2697;42.144;24.794;2022-12-07T15:02:03;48.33;;;18.13;;
5349;SDS011;2697;42.144;24.794;2022-12-07T15:04:29;46.00;;;18.53;;
5349;SDS011;2697;42.144;24.794;2022-12-07T15:06:55;54.40;;;17.17;;
5349;SDS011;2697;42.144;24.794;2022-12-07T15:09:24;41.10;;;16.50;;
5349;SDS011;2697;42.144;24.794;2022-12-07T15:11:50;47.07;;;17.30;;
5349;SDS011;2697;42.144;24.794;2022-12-07T15:14:15;48.90;;;16.67;;
5349;SDS011;2697;42.144;24.794;2022-12-07T15:16:41;36.80;;;17.67;;
5349;SDS011;2697;42.144;24.794;2022-12-07T15:19:14;46.97;;;17.53;;
5349;SDS011;2697;42.144;24.794;2022-12-07T15:21:45;51.50;;;16.87;;
5349;SDS011;2697;42.144;24.794;2022-12-07T15:24:11;36.70;;;16.77;;
5349;SDS011;2697;42.144;24.794;2022-12-07T15:26:37;44.23;;;18.47;;
5349;SDS011;2697;42.144;24.794;2022-12-07T15:29:04;46.40;;;15.77;;
5349;SDS011;2697;42.144;24.794;2022-12-07T15:31:29;46.20;;;18.03;;
5349;SDS011;2697;42.144;24.794;2022-12-07T15:33:55;57.23;;;15.87;;
5349;SDS011;2697;42.144;24.794;2022-12-07T15:36:22;56.57;;;16.17;;
5349;SDS011;2697;42.144;24.794;2022-12-07T15:38:49;42.03;;;18.83;;
5349;SDS011;2697;42.144;24.794;2022-12-07T15:41:15;48.30;;;17.83;;
5349;SDS011;2697;42.144;24.794;2022-12-07T15:43:40;56.87;;;18.90;;
5349;SDS011;2697;42.144;24.794;2022-12-07T15:46:29;48.30;;;20.60;;
5349;SDS011;2697;42.144;24.794;2022-12-07T15:48:59;53.93;;;17.17;;
5349;SDS011;2697;42.144;24.794;2022-12-07T15:51:24;63.93;;;22.73;;
5349;SDS011;2697;42.144;24.794;2022-12-07T15:53:50;54.73;;;19.93;;
5349;SDS011;2697;42.144;24.794;2022-12-07T15:56:16;73.60;;;22.13;;
5349;SDS011;2697;42.144;24.794;2022-12-07T15:58:41;71.77;;;20.60;;
5349;SDS011;2697;42.144;24.794;2022-12-07T16:01:10;81.67;;;19.60;;
5349;SDS011;2697;42.144;24.794;2022-12-07T16:03:37;83.67;;;21.27;;
5349;SDS011;2697;42.144;24.794;2022-12-07T16:06:03;52.40;;;21.03;;
5349;SDS011;2697;42.144;24.794;2022-12-07T16:08:28;52.00;;;20.67;;
5349;SDS011;2697;42.144;24.794;2022-12-07T16:10:54;52.23;;;20.93;;
5349;SDS011;2697;42.144;24.794;2022-12-07T16:13:19;69.13;;;20.10;;
5349;SDS011;2697;42.144;24.794;2022-12-07T16:15:45;65.67;;;20.20;;
5349;SDS011;2697;42.144;24.794;2022-12-07T16:18:11;69.83;;;19.10;;
5349;SDS011;2697;42.144;24.794;2022-12-07T16:20:36;56.63;;;24.07;;
5349;SDS011;2697;42.144;24.794;2022-12-07T16:23:02;63.13;;;23.20;;
5349;SDS011;2697;42.144;24.794;2022-12-07T16:25:28;66.40;;;23.37;;
5349;SDS011;2697;42.144;24.794;2022-12-07T16:27:53;51.37;;;21.10;;
5349;SDS011;2697;42.144;24.794;2022-12-07T16:30:19;73.00;;;24.20;;
5349;SDS011;2697;42.144;24.794;2022-12-07T16:32:44;58.50;;;23.37;;
5349;SDS011;2697;42.144;24.794;2022-12-07T16:35:10;67.33;;;21.40;;
5349;SDS011;2697;42.144;24.794;2022-12-07T16:37:36;105.80;;;22.03;;
5349;SDS011;2697;42.144;24.794;2022-12-07T16:40:02;58.63;;;21.20;;
5349;SDS011;2697;42.144;24.794;2022-12-07T16:42:34;70.57;;;23.63;;
5349;SDS011;2697;42.144;24.794;2022-12-07T16:45:00;77.67;;;20.90;;